Time;durP1;ratioP1;P1;durP2;ratioP2;P2;SDS_P1;SDS_P2;PMS_P1;PMS_P2;Temp;Humidity;BMP_temperature;BMP_pressure;BME280_temperature;BME280_humidity;BME280_pressure;Samples;Min_cycle;Max_cycle;Signal;HPM_P1;HPM_P2
2021/12/16 00:09:06;;;;;;;1.23;0.95;;;5.90;99.90;;;;;;4987330;28;20464;-74
2021/12/16 00:33:33;;;;;;;0.35;0.35;;;6.30;99.90;;;;;;4973767;28;20026;-74
2021/12/16 00:36:00;;;;;;;0.50;0.50;;;6.00;99.90;;;;;;4978967;28;20026;-75
2021/12/16 00:38:26;;;;;;;0.28;0.28;;;5.90;99.90;;;;;;4995433;28;20388;-75
2021/12/16 00:40:52;;;;;;;0.10;0.10;;;5.90;99.90;;;;;;4994395;28;20022;-75
2021/12/16 00:43:33;;;;;;;0.10;0.10;;;5.90;99.90;;;;;;4985518;28;20031;-76
2021/12/16 00:56:32;;;;;;;0.50;0.50;;;5.80;99.90;;;;;;4994561;28;20057;-74
2021/12/16 00:58:59;;;;;;;0.10;0.10;;;5.70;99.90;;;;;;4993299;28;20026;-76
2021/12/16 01:09:51;;;;;;;0.10;0.10;;;5.80;99.90;;;;;;4987822;28;20034;-75
2021/12/16 01:34:34;;;;;;;0.10;0.10;;;5.90;99.90;;;;;;4981478;28;20245;-75
2021/12/16 01:37:33;;;;;;;0.00;0.00;;;5.80;99.90;;;;;;4991068;28;20031;-74
2021/12/16 01:50:29;;;;;;;0.10;0.10;;;5.90;99.90;;;;;;4989218;28;20038;-74
2021/12/16 01:53:34;;;;;;;0.10;0.10;;;5.80;99.90;;;;;;4989666;28;20027;-75
2021/12/16 01:56:16;;;;;;;0.10;0.10;;;5.80;99.90;;;;;;4983131;28;20030;-76
2021/12/16 01:58:43;;;;;;;0.10;0.10;;;5.90;99.90;;;;;;4976367;28;20033;-74
2021/12/16 02:01:30;;;;;;;0.10;0.10;;;5.90;99.90;;;;;;4990933;28;20034;-75
2021/12/16 02:04:02;;;;;;;0.40;0.40;;;5.90;99.90;;;;;;4986153;28;20110;-74
2021/12/16 02:09:12;;;;;;;0.10;0.10;;;5.90;99.90;;;;;;4970923;28;20039;-74
2021/12/16 02:12:06;;;;;;;0.10;0.10;;;5.80;99.90;;;;;;4971244;28;20033;-75
2021/12/16 02:28:25;;;;;;;0.57;0.57;;;5.60;99.90;;;;;;4990144;28;20111;-75
2021/12/16 02:36:16;;;;;;;4.68;3.22;;;5.60;99.90;;;;;;4971319;28;20035;-76
2021/12/16 02:38:46;;;;;;;0.38;0.38;;;5.70;99.90;;;;;;4984927;28;20030;-74
2021/12/16 02:41:12;;;;;;;0.10;0.10;;;5.70;99.90;;;;;;4988123;28;20026;-74
2021/12/16 02:44:06;;;;;;;0.10;0.10;;;5.80;99.90;;;;;;4984639;28;20031;-75
2021/12/16 02:49:14;;;;;;;0.10;0.10;;;5.80;99.90;;;;;;4970151;28;20539;-74
2021/12/16 02:51:39;;;;;;;0.10;0.10;;;5.80;99.90;;;;;;4970000;28;20039;-75
2021/12/16 02:54:06;;;;;;;0.30;0.30;;;5.70;99.90;;;;;;4980767;28;20023;-74
2021/12/16 02:56:33;;;;;;;0.10;0.10;;;5.70;99.90;;;;;;4972117;28;20114;-74
2021/12/16 02:58:59;;;;;;;0.10;0.10;;;5.70;99.90;;;;;;4984829;28;20037;-75
2021/12/16 03:01:50;;;;;;;0.10;0.10;;;5.70;99.90;;;;;;4989604;28;20022;-74
2021/12/16 03:04:17;;;;;;;0.10;0.10;;;5.70;99.90;;;;;;4989565;28;20080;-74
2021/12/16 03:06:46;;;;;;;0.10;0.10;;;5.70;99.90;;;;;;4988510;28;20018;-75
2021/12/16 03:09:15;;;;;;;0.10;0.10;;;5.70;99.90;;;;;;4984765;28;20373;-74
2021/12/16 03:19:40;;;;;;;0.10;0.10;;;5.60;99.90;;;;;;4970141;28;20065;-75
2021/12/16 03:22:07;;;;;;;0.10;0.10;;;5.70;99.90;;;;;;4978404;28;20046;-75
2021/12/16 03:27:40;;;;;;;0.10;0.10;;;5.80;99.90;;;;;;4970335;28;20023;-74
2021/12/16 03:30:53;;;;;;;0.20;0.20;;;5.80;99.90;;;;;;4969777;28;20113;-74
2021/12/16 03:35:28;;;;;;;0.10;0.10;;;5.90;99.90;;;;;;4980603;28;20026;-75
2021/12/16 03:37:57;;;;;;;0.10;0.10;;;6.00;99.90;;;;;;4989223;28;20019;-75
2021/12/16 03:40:25;;;;;;;1.05;1.05;;;6.00;99.90;;;;;;4989054;28;20102;-74
2021/12/16 03:43:00;;;;;;;0.20;0.20;;;6.00;99.90;;;;;;4986316;28;20111;-74
2021/12/16 03:48:45;;;;;;;0.30;0.30;;;6.00;99.90;;;;;;4989199;28;20108;-76
2021/12/16 03:51:24;;;;;;;0.20;0.20;;;5.90;99.90;;;;;;4985310;28;20035;-75
2021/12/16 03:53:53;;;;;;;0.10;0.10;;;5.80;99.90;;;;;;4973478;28;20046;-75
2021/12/16 03:56:19;;;;;;;0.10;0.10;;;5.80;99.90;;;;;;4989045;28;20030;-75
2021/12/16 03:58:45;;;;;;;0.10;0.10;;;5.80;99.90;;;;;;4992007;28;20060;-75
2021/12/16 04:01:15;;;;;;;0.10;0.10;;;6.00;99.90;;;;;;4972305;28;20059;-75
2021/12/16 04:03:42;;;;;;;0.10;0.10;;;5.90;99.90;;;;;;4970682;28;20544;-75
2021/12/16 04:06:09;;;;;;;0.10;0.10;;;5.90;99.90;;;;;;4988884;28;20038;-74
2021/12/16 04:08:35;;;;;;;0.10;0.10;;;5.90;99.90;;;;;;4989023;28;20027;-76
2021/12/16 04:11:21;;;;;;;0.10;0.10;;;6.00;99.90;;;;;;4970556;28;20027;-75
2021/12/16 04:13:57;;;;;;;0.10;0.10;;;5.90;99.90;;;;;;4970987;28;20031;-77
2021/12/16 04:16:31;;;;;;;0.10;0.10;;;6.30;99.90;;;;;;4970607;28;20022;-78
2021/12/16 04:18:59;;;;;;;0.10;0.10;;;5.80;99.90;;;;;;4973358;28;20093;-77
2021/12/16 04:21:26;;;;;;;0.10;0.10;;;5.80;99.90;;;;;;4990769;28;20038;-74
2021/12/16 04:23:57;;;;;;;0.10;0.10;;;5.80;99.90;;;;;;4970964;28;20111;-73
2021/12/16 04:26:26;;;;;;;0.73;0.63;;;5.90;99.90;;;;;;4969696;28;20027;-75
2021/12/16 04:28:52;;;;;;;0.10;0.10;;;5.80;99.90;;;;;;4971218;28;20066;-75
2021/12/16 04:31:18;;;;;;;1.58;1.55;;;5.90;99.90;;;;;;4985511;28;20061;-75
2021/12/16 04:33:44;;;;;;;0.10;0.10;;;5.90;99.90;;;;;;4992097;28;20495;-74
2021/12/16 04:36:12;;;;;;;0.10;0.10;;;6.00;99.90;;;;;;4978253;28;20118;-75
2021/12/16 04:38:40;;;;;;;0.10;0.10;;;6.00;99.90;;;;;;4992250;28;20033;-75
2021/12/16 04:41:09;;;;;;;0.10;0.10;;;6.10;99.90;;;;;;4992246;28;20029;-75
2021/12/16 04:43:41;;;;;;;0.10;0.10;;;6.20;99.90;;;;;;4991970;28;20022;-74
2021/12/16 04:46:16;;;;;;;0.10;0.10;;;6.20;99.90;;;;;;4987445;28;20038;-76
2021/12/16 04:48:44;;;;;;;0.20;0.20;;;6.10;99.90;;;;;;4977975;28;20022;-75
2021/12/16 04:51:10;;;;;;;0.10;0.10;;;6.00;99.90;;;;;;4992508;28;20033;-75
2021/12/16 04:53:37;;;;;;;0.98;0.98;;;6.00;99.90;;;;;;4991406;28;20042;-75
2021/12/16 04:56:05;;;;;;;0.40;0.40;;;6.00;99.90;;;;;;4981223;28;20126;-74
2021/12/16 04:58:31;;;;;;;0.93;0.93;;;6.00;99.90;;;;;;4977372;28;20026;-75
2021/12/16 05:00:57;;;;;;;0.10;0.10;;;5.90;99.90;;;;;;4994033;28;20094;-74
2021/12/16 05:03:25;;;;;;;0.10;0.10;;;5.90;99.90;;;;;;4980956;28;20031;-73
2021/12/16 05:05:51;;;;;;;0.22;0.22;;;5.90;99.90;;;;;;4991214;28;20484;-75
2021/12/16 05:08:17;;;;;;;0.10;0.10;;;5.90;99.90;;;;;;4992177;28;20030;-74
2021/12/16 05:10:43;;;;;;;0.10;0.10;;;5.90;99.90;;;;;;4991464;28;20621;-74
2021/12/16 05:13:09;;;;;;;0.10;0.10;;;6.00;99.90;;;;;;4975709;28;20148;-74
2021/12/16 05:15:38;;;;;;;0.32;0.32;;;6.00;99.90;;;;;;4972387;28;20026;-75
2021/12/16 05:18:08;;;;;;;0.10;0.10;;;5.90;99.90;;;;;;4972285;28;20022;-74
2021/12/16 05:20:39;;;;;;;0.35;0.35;;;6.00;99.90;;;;;;4980441;28;20023;-75
2021/12/16 05:28:21;;;;;;;0.10;0.10;;;5.80;99.90;;;;;;4989072;28;20101;-75
2021/12/16 05:30:47;;;;;;;0.77;0.77;;;5.80;99.90;;;;;;4980833;28;20050;-75
2021/12/16 05:33:13;;;;;;;0.10;0.10;;;5.80;99.90;;;;;;4991024;28;20096;-75
2021/12/16 05:35:40;;;;;;;0.10;0.10;;;5.80;99.90;;;;;;4990867;28;20101;-75
2021/12/16 05:38:05;;;;;;;0.10;0.10;;;5.80;99.90;;;;;;4979245;28;20381;-75
2021/12/16 05:40:32;;;;;;;0.10;0.10;;;5.80;99.90;;;;;;4986243;28;20487;-75
2021/12/16 05:43:02;;;;;;;0.38;0.38;;;5.80;99.90;;;;;;4970031;28;20035;-73
2021/12/16 05:45:28;;;;;;;0.10;0.10;;;5.80;99.90;;;;;;4980636;28;20050;-75
2021/12/16 05:47:57;;;;;;;0.13;0.13;;;5.80;99.90;;;;;;4976817;28;20046;-75
2021/12/16 05:50:24;;;;;;;0.10;0.10;;;5.90;99.90;;;;;;4981127;28;20050;-76
2021/12/16 05:52:49;;;;;;;3.95;3.50;;;6.90;99.90;;;;;;4969661;28;20372;-74
2021/12/16 05:55:17;;;;;;;0.10;0.10;;;5.80;99.90;;;;;;4971365;28;20031;-75
2021/12/16 05:57:43;;;;;;;0.57;0.57;;;6.60;99.90;;;;;;4971449;28;20429;-75
2021/12/16 06:00:14;;;;;;;0.25;0.25;;;5.70;99.90;;;;;;4984251;28;20077;-74
2021/12/16 06:02:40;;;;;;;0.17;0.17;;;5.70;99.90;;;;;;4982972;28;20026;-73
2021/12/16 06:05:07;;;;;;;0.20;0.20;;;5.70;99.90;;;;;;4978268;28;20239;-75
2021/12/16 06:07:32;;;;;;;0.10;0.10;;;5.80;99.90;;;;;;4991618;28;20038;-75
2021/12/16 06:09:58;;;;;;;0.20;0.20;;;5.80;99.90;;;;;;4990564;28;20027;-75
2021/12/16 06:12:26;;;;;;;0.10;0.10;;;5.80;99.90;;;;;;4990000;28;20393;-75
2021/12/16 06:26:25;;;;;;;0.10;0.10;;;5.70;99.90;;;;;;4998989;28;20037;-75
2021/12/16 06:28:23;;;;;;;0.20;0.20;;;5.80;99.90;;;;;;5009061;28;20613;-76
2021/12/16 06:30:49;;;;;;;0.40;0.40;;;5.70;99.90;;;;;;4981184;28;20034;-75
2021/12/16 06:33:19;;;;;;;0.10;0.10;;;5.70;99.90;;;;;;4990046;28;20042;-76
2021/12/16 06:35:47;;;;;;;0.10;0.10;;;5.70;99.90;;;;;;4990443;28;20177;-75
2021/12/16 06:38:13;;;;;;;0.10;0.10;;;5.80;99.90;;;;;;4986611;28;20038;-75
2021/12/16 06:40:39;;;;;;;1.02;0.98;;;5.80;99.90;;;;;;4970644;28;20039;-74
2021/12/16 06:43:06;;;;;;;0.10;0.10;;;5.90;99.90;;;;;;4970888;28;20048;-75
2021/12/16 06:45:37;;;;;;;0.10;0.10;;;5.90;99.90;;;;;;4971237;28;20027;-75
2021/12/16 06:48:09;;;;;;;0.10;0.10;;;5.90;99.90;;;;;;4975790;28;20022;-75
2021/12/16 06:50:49;;;;;;;0.10;0.10;;;5.90;99.90;;;;;;4986884;28;20033;-75
2021/12/16 06:53:24;;;;;;;0.10;0.10;;;5.90;99.90;;;;;;4969130;28;20027;-76
2021/12/16 06:56:11;;;;;;;0.10;0.10;;;6.00;99.90;;;;;;4970199;28;20485;-75
2021/12/16 06:59:25;;;;;;;0.10;0.10;;;6.10;99.90;;;;;;4973287;28;20473;-76
2021/12/16 07:01:40;;;;;;;0.10;0.10;;;6.20;99.90;;;;;;4990417;28;20059;-75
2021/12/16 07:04:11;;;;;;;0.10;0.10;;;6.10;99.90;;;;;;4987433;28;20022;-75
2021/12/16 07:06:39;;;;;;;0.10;0.10;;;6.10;99.90;;;;;;4979572;28;20037;-77
2021/12/16 07:09:15;;;;;;;0.10;0.10;;;6.10;99.90;;;;;;4980730;28;20022;-75
2021/12/16 07:11:44;;;;;;;0.10;0.10;;;6.10;99.90;;;;;;4988690;28;20117;-74
2021/12/16 07:14:15;;;;;;;0.10;0.10;;;6.00;99.90;;;;;;4983812;28;20427;-75
2021/12/16 07:16:42;;;;;;;0.10;0.10;;;6.00;99.90;;;;;;4989163;28;20030;-75
2021/12/16 07:19:09;;;;;;;0.10;0.10;;;6.00;99.90;;;;;;4980590;28;20045;-75
2021/12/16 07:21:40;;;;;;;0.10;0.10;;;6.00;99.90;;;;;;4988372;28;20026;-75
2021/12/16 07:24:08;;;;;;;0.47;0.47;;;6.00;99.90;;;;;;4986024;28;20018;-75
2021/12/16 07:26:34;;;;;;;0.30;0.30;;;6.10;99.90;;;;;;4985792;28;20026;-75
2021/12/16 07:29:00;;;;;;;0.10;0.10;;;6.10;99.90;;;;;;4988679;28;20451;-76
2021/12/16 07:31:28;;;;;;;0.30;0.30;;;6.10;99.90;;;;;;4987854;28;20030;-77
2021/12/16 07:33:54;;;;;;;0.10;0.10;;;6.00;99.90;;;;;;4980559;28;20026;-74
2021/12/16 07:36:20;;;;;;;0.30;0.30;;;6.10;99.90;;;;;;4989555;28;20040;-76
2021/12/16 07:38:47;;;;;;;0.10;0.10;;;6.00;99.90;;;;;;4985893;28;20105;-74
2021/12/16 07:41:16;;;;;;;2.45;1.75;;;6.10;99.90;;;;;;4982692;28;20046;-76
2021/12/16 07:43:58;;;;;;;0.10;0.10;;;6.10;99.90;;;;;;4990859;28;20128;-75
2021/12/16 07:46:25;;;;;;;0.25;0.25;;;6.30;99.90;;;;;;4987195;28;20088;-76
2021/12/16 07:48:51;;;;;;;0.70;0.70;;;6.00;99.90;;;;;;4988446;28;20434;-78
2021/12/16 07:51:17;;;;;;;0.10;0.10;;;6.10;99.90;;;;;;4983811;28;20138;-78
2021/12/16 07:53:43;;;;;;;0.10;0.10;;;6.10;99.90;;;;;;4981225;28;20477;-76
2021/12/16 07:56:10;;;;;;;0.20;0.20;;;6.10;99.90;;;;;;4988496;28;20026;-75
2021/12/16 07:58:36;;;;;;;0.22;0.22;;;6.20;99.90;;;;;;4983751;28;20112;-76
2021/12/16 08:01:03;;;;;;;0.10;0.10;;;6.20;99.90;;;;;;4986194;28;20022;-76
2021/12/16 08:03:35;;;;;;;0.10;0.10;;;6.30;99.90;;;;;;4983631;28;20116;-77
2021/12/16 08:06:06;;;;;;;0.10;0.10;;;6.30;99.90;;;;;;4986138;28;20034;-75
2021/12/16 08:08:32;;;;;;;0.08;0.08;;;6.30;99.90;;;;;;4989921;28;20117;-75
2021/12/16 08:10:58;;;;;;;0.25;0.25;;;6.30;99.90;;;;;;4990800;28;20031;-75
2021/12/16 08:13:24;;;;;;;0.57;0.57;;;6.40;99.90;;;;;;4987093;28;20061;-75
2021/12/16 08:15:50;;;;;;;0.17;0.17;;;6.40;99.90;;;;;;4991974;28;20026;-77
2021/12/16 08:18:16;;;;;;;0.30;0.30;;;6.40;99.90;;;;;;4993505;28;20031;-76
2021/12/16 08:20:42;;;;;;;0.10;0.10;;;6.30;99.90;;;;;;4989521;28;20503;-75
2021/12/16 08:23:08;;;;;;;0.20;0.20;;;6.30;99.90;;;;;;4991704;28;20022;-78
2021/12/16 08:25:36;;;;;;;0.10;0.10;;;6.30;99.90;;;;;;4989381;28;20038;-77
2021/12/16 08:28:04;;;;;;;0.10;0.10;;;6.30;99.90;;;;;;4989647;28;20034;-77
2021/12/16 08:30:34;;;;;;;0.40;0.40;;;6.40;99.90;;;;;;4992331;28;20042;-78
2021/12/16 08:33:05;;;;;;;0.30;0.30;;;6.30;99.90;;;;;;4978707;28;20034;-75
2021/12/16 08:35:32;;;;;;;0.10;0.10;;;6.40;99.90;;;;;;4987286;28;20173;-75
2021/12/16 08:37:57;;;;;;;0.10;0.10;;;6.40;99.90;;;;;;4990447;28;20121;-75
2021/12/16 08:40:25;;;;;;;0.10;0.10;;;6.50;99.90;;;;;;4991010;28;20035;-74
2021/12/16 08:42:51;;;;;;;0.43;0.43;;;6.50;99.90;;;;;;4991569;28;20149;-76
2021/12/16 08:45:24;;;;;;;0.20;0.20;;;6.50;99.90;;;;;;4989125;28;20116;-75
2021/12/16 08:47:51;;;;;;;0.10;0.10;;;6.50;99.90;;;;;;4989942;28;20504;-74
2021/12/16 08:50:20;;;;;;;0.30;0.30;;;6.40;99.90;;;;;;4987733;28;20046;-76
2021/12/16 08:52:47;;;;;;;0.10;0.10;;;6.60;99.90;;;;;;4988318;28;20530;-75
2021/12/16 08:55:14;;;;;;;0.47;0.47;;;6.60;99.90;;;;;;4983460;28;20068;-75
2021/12/16 08:57:40;;;;;;;1.95;1.85;;;6.70;99.90;;;;;;4990921;28;20061;-76
2021/12/16 09:00:10;;;;;;;0.10;0.10;;;6.70;99.90;;;;;;4991092;28;20026;-77
2021/12/16 09:02:36;;;;;;;0.15;0.15;;;6.70;99.90;;;;;;4986205;28;20042;-75
2021/12/16 09:05:03;;;;;;;0.10;0.10;;;6.80;99.90;;;;;;4984252;28;20053;-75
2021/12/16 09:07:29;;;;;;;0.90;0.75;;;6.80;99.90;;;;;;4989923;28;20399;-77
2021/12/16 09:09:56;;;;;;;0.10;0.10;;;6.80;99.90;;;;;;4984765;28;20026;-76
2021/12/16 09:14:56;;;;;;;0.10;0.10;;;6.90;99.90;;;;;;4989752;28;20061;-76
2021/12/16 09:17:22;;;;;;;0.10;0.10;;;7.10;99.90;;;;;;4990442;28;20053;-76
2021/12/16 09:19:51;;;;;;;1.17;1.17;;;7.00;99.90;;;;;;4988716;28;20535;-76
2021/12/16 09:22:17;;;;;;;0.25;0.25;;;7.10;99.90;;;;;;4988311;28;20497;-74
2021/12/16 09:24:45;;;;;;;0.10;0.10;;;7.10;99.90;;;;;;4987066;28;20030;-75
2021/12/16 09:27:11;;;;;;;0.10;0.10;;;7.10;99.90;;;;;;4984588;28;20034;-77
2021/12/16 09:29:38;;;;;;;0.10;0.10;;;7.10;99.90;;;;;;4985171;28;20080;-76
2021/12/16 09:32:04;;;;;;;0.35;0.35;;;7.10;99.90;;;;;;4989116;28;20117;-77
2021/12/16 09:34:31;;;;;;;0.10;0.10;;;7.30;99.90;;;;;;4989144;28;20084;-76
2021/12/16 09:36:57;;;;;;;0.10;0.10;;;7.30;99.90;;;;;;4989866;28;20104;-77
2021/12/16 09:39:25;;;;;;;0.10;0.10;;;7.20;99.90;;;;;;4989437;28;20501;-78
2021/12/16 09:41:51;;;;;;;0.10;0.10;;;7.20;99.90;;;;;;4990274;28;20075;-78
2021/12/16 09:44:18;;;;;;;0.52;0.52;;;7.20;99.90;;;;;;4983437;28;20034;-77
2021/12/16 09:46:48;;;;;;;0.50;0.50;;;7.30;99.90;;;;;;4989440;28;20083;-77
2021/12/16 09:49:15;;;;;;;0.68;0.68;;;7.30;99.90;;;;;;4988611;28;20169;-74
2021/12/16 09:51:43;;;;;;;0.10;0.10;;;7.20;99.90;;;;;;4990583;28;20052;-76
2021/12/16 09:54:12;;;;;;;0.10;0.10;;;7.40;99.90;;;;;;4988077;28;20027;-76
2021/12/16 09:56:40;;;;;;;0.10;0.10;;;7.30;99.90;;;;;;4985487;28;20045;-74
2021/12/16 09:59:10;;;;;;;0.10;0.10;;;7.30;99.90;;;;;;4987325;28;20049;-75
2021/12/16 10:01:37;;;;;;;0.10;0.10;;;7.20;99.90;;;;;;4989245;28;20023;-75
2021/12/16 10:04:06;;;;;;;0.22;0.22;;;7.30;99.90;;;;;;4987346;28;20492;-77
2021/12/16 10:06:34;;;;;;;0.10;0.10;;;7.30;99.90;;;;;;4986798;28;20157;-75
2021/12/16 10:09:02;;;;;;;0.10;0.10;;;7.30;99.90;;;;;;4990471;28;20122;-74
2021/12/16 10:11:28;;;;;;;0.10;0.10;;;7.30;99.90;;;;;;4983087;28;20563;-76
2021/12/16 10:19:08;;;;;;;0.10;0.10;;;7.40;99.90;;;;;;4991450;28;20545;-77
2021/12/16 10:21:35;;;;;;;0.10;0.10;;;7.40;99.90;;;;;;4989200;28;20109;-79
2021/12/16 10:24:00;;;;;;;0.10;0.10;;;7.50;99.90;;;;;;4982477;28;20525;-76
2021/12/16 10:26:27;;;;;;;0.10;0.10;;;7.50;99.90;;;;;;4984462;28;20548;-79
2021/12/16 10:28:58;;;;;;;0.10;0.10;;;7.60;99.90;;;;;;4986509;28;20019;-76
2021/12/16 10:31:36;;;;;;;0.10;0.10;;;7.70;99.90;;;;;;4986675;28;20034;-76
2021/12/16 10:34:08;;;;;;;0.10;0.10;;;7.80;99.90;;;;;;4985857;28;20015;-76
2021/12/16 10:36:35;;;;;;;0.10;0.10;;;7.60;99.90;;;;;;4980479;28;20112;-76
2021/12/16 10:39:09;;;;;;;1.83;1.67;;;7.80;99.90;;;;;;4982859;28;20030;-75
2021/12/16 10:41:46;;;;;;;0.32;0.32;;;7.50;99.90;;;;;;4981863;28;20124;-78
2021/12/16 10:44:17;;;;;;;0.10;0.10;;;7.60;99.90;;;;;;4983913;28;20485;-76
2021/12/16 10:47:02;;;;;;;0.30;0.30;;;7.50;99.90;;;;;;4982113;28;20051;-76
2021/12/16 10:49:29;;;;;;;0.10;0.10;;;7.40;99.90;;;;;;4976863;28;20087;-76
2021/12/16 10:51:59;;;;;;;0.10;0.10;;;7.30;99.90;;;;;;4978255;28;20126;-73
2021/12/16 10:54:38;;;;;;;0.10;0.10;;;7.50;99.90;;;;;;4979763;28;20113;-74
2021/12/16 10:57:09;;;;;;;0.10;0.10;;;7.50;99.90;;;;;;4984592;28;20053;-74
2021/12/16 10:59:40;;;;;;;0.20;0.20;;;7.50;99.90;;;;;;4982739;28;20492;-74
2021/12/16 11:02:17;;;;;;;0.10;0.10;;;7.40;99.90;;;;;;4982475;28;20141;-73
2021/12/16 11:04:51;;;;;;;0.10;0.10;;;7.50;99.90;;;;;;4980792;28;20083;-74
2021/12/16 11:07:27;;;;;;;0.10;0.10;;;7.50;99.90;;;;;;4979653;28;20026;-75
2021/12/16 11:10:01;;;;;;;0.10;0.10;;;7.40;99.90;;;;;;4977880;28;20027;-75
2021/12/16 11:12:32;;;;;;;0.10;0.10;;;7.40;99.90;;;;;;4980272;28;20054;-75
2021/12/16 11:15:09;;;;;;;0.10;0.10;;;7.30;99.90;;;;;;4982892;28;20022;-73
2021/12/16 11:18:05;;;;;;;1.23;1.15;;;7.30;99.90;;;;;;4978489;28;20026;-72
2021/12/16 11:20:40;;;;;;;0.10;0.10;;;7.40;99.90;;;;;;4979275;28;20053;-74
2021/12/16 11:23:21;;;;;;;0.13;0.13;;;7.40;99.90;;;;;;4981035;28;20042;-73
2021/12/16 11:25:52;;;;;;;0.10;0.10;;;7.50;99.90;;;;;;4985648;28;20022;-74
2021/12/16 11:28:28;;;;;;;0.10;0.10;;;7.50;99.90;;;;;;4985367;28;20497;-74
2021/12/16 11:31:25;;;;;;;0.10;0.10;;;7.40;99.90;;;;;;4988331;28;20038;-74
2021/12/16 11:33:55;;;;;;;0.10;0.10;;;7.50;99.90;;;;;;4986583;28;20026;-72
2021/12/16 11:36:37;;;;;;;0.10;0.10;;;7.50;99.90;;;;;;4987791;28;20108;-74
2021/12/16 11:39:06;;;;;;;0.33;0.33;;;7.50;99.90;;;;;;4992138;28;20090;-73
2021/12/16 11:41:35;;;;;;;0.10;0.10;;;7.70;99.90;;;;;;4991584;28;20046;-73
2021/12/16 11:44:29;;;;;;;0.17;0.17;;;7.70;99.90;;;;;;4989531;28;20022;-74
2021/12/16 11:47:06;;;;;;;0.10;0.10;;;7.60;99.90;;;;;;4991546;28;20052;-73
2021/12/16 11:49:31;;;;;;;0.10;0.10;;;7.60;99.90;;;;;;4990822;28;20448;-74
2021/12/16 11:52:13;;;;;;;0.10;0.10;;;7.60;99.90;;;;;;4992300;28;20509;-74
2021/12/16 11:54:58;;;;;;;0.10;0.10;;;7.70;99.90;;;;;;4989868;28;20033;-74
2021/12/16 11:57:30;;;;;;;0.10;0.10;;;7.60;99.90;;;;;;4990368;28;20065;-74
2021/12/16 12:00:25;;;;;;;0.10;0.10;;;7.70;99.90;;;;;;4987394;28;20034;-72
2021/12/16 12:02:55;;;;;;;0.10;0.10;;;7.80;99.90;;;;;;4990121;28;20042;-75
2021/12/16 12:05:26;;;;;;;0.10;0.10;;;7.80;99.90;;;;;;4988481;28;20448;-76
2021/12/16 12:08:05;;;;;;;0.10;0.10;;;7.80;99.90;;;;;;4992486;28;20141;-74
2021/12/16 12:11:16;;;;;;;0.10;0.10;;;7.80;99.90;;;;;;4983029;28;20033;-73
2021/12/16 12:14:20;;;;;;;0.20;0.20;;;7.90;99.90;;;;;;4990640;28;20340;-75
2021/12/16 12:16:49;;;;;;;0.10;0.10;;;7.70;99.90;;;;;;4990661;28;20122;-81
2021/12/16 12:19:20;;;;;;;0.10;0.10;;;7.80;99.90;;;;;;4988936;28;20117;-75
2021/12/16 12:21:58;;;;;;;0.10;0.10;;;7.90;99.90;;;;;;4992412;28;20024;-74
2021/12/16 12:24:39;;;;;;;0.10;0.10;;;7.80;99.90;;;;;;4993635;28;20030;-74
2021/12/16 12:27:12;;;;;;;0.10;0.10;;;8.10;99.90;;;;;;4994191;28;20097;-73
2021/12/16 12:29:48;;;;;;;;;;;8.20;99.90;;;;;;4987918;28;20144;-74
2021/12/16 12:32:14;;;;;;;0.10;0.10;;;8.20;99.90;;;;;;4987968;28;19909;-74
2021/12/16 12:34:43;;;;;;;0.52;0.52;;;8.30;99.90;;;;;;4989041;28;20408;-73
2021/12/16 12:37:14;;;;;;;0.10;0.10;;;8.40;99.90;;;;;;4989187;28;20092;-74
2021/12/16 12:39:47;;;;;;;0.10;0.10;;;8.40;99.90;;;;;;4989790;28;20205;-78
2021/12/16 12:42:14;;;;;;;0.10;0.10;;;8.30;99.90;;;;;;4986538;28;20088;-73
2021/12/16 12:44:41;;;;;;;0.10;0.10;;;8.20;99.90;;;;;;4988851;28;20269;-75
2021/12/16 12:47:13;;;;;;;0.10;0.10;;;8.10;99.90;;;;;;4986141;28;20041;-74
2021/12/16 12:49:39;;;;;;;0.32;0.32;;;8.00;99.90;;;;;;4983401;28;20058;-73
2021/12/16 12:52:15;;;;;;;2.65;2.25;;;8.20;99.90;;;;;;4988911;28;20057;-73
2021/12/16 12:54:44;;;;;;;0.10;0.10;;;8.10;99.90;;;;;;4984807;28;20026;-74
2021/12/16 12:57:29;;;;;;;2.05;1.88;;;8.00;99.90;;;;;;4990273;28;20461;-74
2021/12/16 12:59:56;;;;;;;1.80;1.75;;;8.30;99.90;;;;;;4992411;28;20037;-74
2021/12/16 13:02:30;;;;;;;0.10;0.10;;;8.40;99.90;;;;;;4987621;28;20344;-75
2021/12/16 13:05:00;;;;;;;0.63;0.63;;;8.40;99.90;;;;;;4985977;28;20374;-73
2021/12/16 13:07:54;;;;;;;0.13;0.13;;;8.40;99.90;;;;;;4985037;28;20038;-73
2021/12/16 13:10:27;;;;;;;3.40;3.13;;;8.40;99.90;;;;;;4993858;28;20038;-75
2021/12/16 13:13:03;;;;;;;;;;;8.40;99.90;;;;;;4990931;28;20035;-72
2021/12/16 13:26:59;;;;;;;0.10;0.10;;;8.50;99.90;;;;;;4991947;28;20077;-74
2021/12/16 13:29:39;;;;;;;0.10;0.10;;;8.30;99.90;;;;;;4987912;28;20030;-74
2021/12/16 13:32:16;;;;;;;0.13;0.13;;;8.30;99.90;;;;;;4992624;28;20018;-76
2021/12/16 13:34:58;;;;;;;0.10;0.10;;;8.20;99.90;;;;;;4986170;28;20059;-76
2021/12/16 13:37:37;;;;;;;0.10;0.10;;;8.30;99.90;;;;;;4991201;28;20030;-74
2021/12/16 13:40:16;;;;;;;0.10;0.10;;;8.30;99.90;;;;;;4990458;28;20026;-75
2021/12/16 13:42:53;;;;;;;0.10;0.10;;;8.20;99.90;;;;;;4988157;28;20533;-74
2021/12/16 13:45:25;;;;;;;0.10;0.10;;;8.20;99.90;;;;;;4989546;28;20103;-74
2021/12/16 14:05:04;;;;;;;0.10;0.10;;;8.30;99.90;;;;;;4989694;28;20109;-73
2021/12/16 14:08:13;;;;;;;0.10;0.10;;;8.40;99.90;;;;;;4984247;28;20517;-74
2021/12/16 14:10:45;;;;;;;0.10;0.10;;;8.20;99.90;;;;;;4997698;28;20050;-73
2021/12/16 14:16:24;;;;;;;0.10;0.10;;;8.00;99.90;;;;;;4986061;28;20172;-74
2021/12/16 14:43:54;;;;;;;0.10;0.10;;;8.20;99.90;;;;;;4980381;28;20053;-74
2021/12/16 14:46:26;;;;;;;0.10;0.10;;;8.20;99.90;;;;;;4988994;28;20049;-74
2021/12/16 14:48:51;;;;;;;0.10;0.10;;;8.20;99.90;;;;;;4989607;28;20022;-74
2021/12/16 14:51:17;;;;;;;0.10;0.10;;;8.20;99.90;;;;;;4984413;28;20388;-73
2021/12/16 14:53:49;;;;;;;0.10;0.10;;;8.20;99.90;;;;;;4990010;28;20460;-75
2021/12/16 14:56:41;;;;;;;0.10;0.10;;;8.20;99.90;;;;;;4989027;28;20076;-74
2021/12/16 14:59:14;;;;;;;0.20;0.20;;;8.10;99.90;;;;;;4999666;22;20443;-71
2021/12/16 15:01:43;;;;;;;0.10;0.10;;;8.10;99.90;;;;;;4986916;28;20066;-71
2021/12/16 15:04:14;;;;;;;0.25;0.25;;;8.10;99.90;;;;;;4988986;28;20034;-71
2021/12/16 15:07:03;;;;;;;0.13;0.13;;;8.10;99.90;;;;;;4983671;28;20038;-71
2021/12/16 15:09:34;;;;;;;0.10;0.10;;;8.10;99.90;;;;;;4984168;28;20129;-71
2021/12/16 15:12:20;;;;;;;0.20;0.20;;;8.00;99.90;;;;;;4988704;28;20348;-71
2021/12/16 15:15:10;;;;;;;0.10;0.10;;;7.90;99.90;;;;;;4981774;28;20022;-72
2021/12/16 15:43:20;;;;;;;0.10;0.10;;;7.30;99.90;;;;;;4988833;28;20057;-74
2021/12/16 15:45:51;;;;;;;0.10;0.10;;;7.20;99.90;;;;;;4984836;28;20044;-76
2021/12/16 15:48:26;;;;;;;0.17;0.17;;;7.90;99.90;;;;;;4988386;28;20362;-74
2021/12/16 15:50:53;;;;;;;0.10;0.10;;;7.20;99.90;;;;;;4988448;28;20061;-72
2021/12/16 15:53:25;;;;;;;0.20;0.20;;;7.20;99.90;;;;;;4987575;28;20097;-71
2021/12/16 15:55:56;;;;;;;1.70;1.58;;;7.10;99.90;;;;;;4987309;28;20022;-71
2021/12/16 15:58:27;;;;;;;0.10;0.10;;;7.10;99.90;;;;;;4985194;28;20130;-73
2021/12/16 16:00:57;;;;;;;0.10;0.10;;;7.10;99.90;;;;;;4987791;28;20026;-71
2021/12/16 16:03:25;;;;;;;0.17;0.17;;;7.10;99.90;;;;;;4987767;28;20041;-73
2021/12/16 16:05:57;;;;;;;0.35;0.35;;;7.10;99.90;;;;;;4984661;28;20026;-71
2021/12/16 16:08:27;;;;;;;0.10;0.10;;;7.10;99.90;;;;;;4987604;28;20050;-71
2021/12/16 16:10:59;;;;;;;1.15;1.15;;;7.20;99.90;;;;;;4987970;28;20058;-71
2021/12/16 16:13:28;;;;;;;1.45;1.45;;;7.20;99.90;;;;;;4987281;28;20029;-70
2021/12/16 16:16:00;;;;;;;0.10;0.10;;;7.20;99.90;;;;;;4982305;28;20046;-73
2021/12/16 16:21:19;;;;;;;0.10;0.10;;;7.10;99.90;;;;;;4987501;28;20049;-71
2021/12/16 16:23:48;;;;;;;0.10;0.10;;;7.10;99.90;;;;;;4984154;28;20026;-72
2021/12/16 16:26:15;;;;;;;0.10;0.10;;;7.10;99.90;;;;;;4988473;28;20141;-72
2021/12/16 16:28:44;;;;;;;1.52;1.48;;;7.20;99.90;;;;;;5003223;28;20034;-70
2021/12/16 16:31:15;;;;;;;0.98;0.98;;;7.00;99.90;;;;;;5007162;28;20026;-72
2021/12/16 16:33:40;;;;;;;0.10;0.10;;;7.00;99.90;;;;;;4994783;28;20495;-72
2021/12/16 16:36:13;;;;;;;1.48;1.48;;;6.90;99.90;;;;;;5015294;28;20026;-72
2021/12/16 16:38:45;;;;;;;0.10;0.10;;;6.90;99.90;;;;;;5003046;28;20185;-72
2021/12/16 16:41:17;;;;;;;0.10;0.10;;;6.90;99.90;;;;;;4995338;28;20292;-71
2021/12/16 16:43:54;;;;;;;0.10;0.10;;;6.80;99.90;;;;;;4993358;28;20109;-73
2021/12/16 16:46:42;;;;;;;0.10;0.10;;;6.80;99.90;;;;;;4990589;28;20053;-73
2021/12/16 16:49:14;;;;;;;0.10;0.10;;;6.90;99.90;;;;;;4992758;28;20033;-72
2021/12/16 16:51:46;;;;;;;0.20;0.20;;;6.90;99.90;;;;;;4983889;28;20022;-71
2021/12/16 16:54:30;;;;;;;0.10;0.10;;;6.90;99.90;;;;;;4985561;28;20037;-71
2021/12/16 16:57:03;;;;;;;0.10;0.10;;;7.00;99.90;;;;;;4988402;28;20040;-73
2021/12/16 16:59:42;;;;;;;0.10;0.10;;;6.90;99.90;;;;;;4984301;28;20085;-73
2021/12/16 17:02:29;;;;;;;0.10;0.10;;;6.80;99.90;;;;;;4986728;28;20049;-73
2021/12/16 17:05:10;;;;;;;0.10;0.10;;;6.80;99.90;;;;;;4982316;28;20039;-72
2021/12/16 17:07:39;;;;;;;0.15;0.15;;;6.70;99.90;;;;;;4985132;28;20085;-73
2021/12/16 17:10:17;;;;;;;0.15;0.15;;;6.70;99.90;;;;;;4982802;28;20536;-73
2021/12/16 17:12:43;;;;;;;3.10;2.80;;;6.60;99.90;;;;;;4987944;28;20034;-75